createdAt,value
2018-05-11T00:00:16.081Z,5.60
2018-05-11T00:02:43.625Z,5.03
2018-05-11T00:05:11.188Z,5.57
2018-05-11T00:07:38.716Z,4.97
2018-05-11T00:10:06.247Z,5.47
2018-05-11T00:12:33.765Z,5.60
2018-05-11T00:15:01.301Z,5.57
2018-05-11T00:17:28.828Z,5.73
2018-05-11T00:19:56.370Z,6.03
2018-05-11T00:22:23.887Z,5.70
2018-05-11T00:24:51.487Z,6.50
2018-05-11T00:27:19.019Z,6.63
2018-05-11T00:29:46.592Z,6.80
2018-05-11T00:32:14.157Z,6.80
2018-05-11T00:34:41.705Z,6.07
2018-05-11T00:37:09.245Z,6.63
2018-05-11T00:39:36.788Z,6.60
2018-05-11T00:42:04.338Z,7.13
2018-05-11T00:44:31.904Z,6.50
2018-05-11T00:46:59.454Z,6.47
2018-05-11T00:49:27.003Z,7.17
2018-05-11T00:51:54.554Z,7.30
2018-05-11T00:54:22.107Z,7.23
2018-05-11T00:56:49.653Z,8.37
2018-05-11T00:59:17.209Z,6.70
2018-05-11T01:01:44.775Z,8.63
2018-05-11T01:04:12.327Z,7.43
2018-05-11T01:06:39.873Z,7.27
2018-05-11T01:09:07.526Z,6.97
2018-05-11T01:11:35.106Z,7.43
2018-05-11T01:14:02.700Z,7.20
2018-05-11T01:16:30.269Z,7.20
2018-05-11T01:18:57.845Z,7.27
2018-05-11T01:21:25.437Z,7.33
2018-05-11T01:23:52.996Z,6.77
2018-05-11T01:26:20.571Z,8.63
2018-05-11T01:28:49.182Z,8.50
2018-05-11T01:31:16.769Z,8.37
2018-05-11T01:33:44.326Z,8.10
2018-05-11T01:36:11.915Z,8.73
2018-05-11T01:38:39.447Z,8.97
2018-05-11T01:41:07.669Z,8.30
2018-05-11T01:43:35.238Z,9.00
2018-05-11T01:46:02.807Z,7.23
2018-05-11T01:48:30.343Z,8.33
2018-05-11T01:50:57.902Z,8.13
2018-05-11T01:53:25.567Z,9.47
2018-05-11T01:55:53.075Z,8.93
2018-05-11T01:58:20.637Z,8.53
2018-05-11T02:00:48.251Z,9.67
2018-05-11T02:03:15.806Z,9.37
2018-05-11T02:05:43.375Z,8.67
2018-05-11T02:08:10.954Z,8.87
2018-05-11T02:10:38.543Z,9.43
2018-05-11T02:13:06.098Z,9.03
2018-05-11T02:15:33.673Z,10.00
2018-05-11T02:18:01.241Z,10.83
2018-05-11T02:20:28.841Z,9.77
2018-05-11T02:22:56.397Z,10.30
2018-05-11T02:25:23.964Z,10.63
2018-05-11T02:27:51.509Z,11.03
2018-05-11T02:30:19.074Z,10.37
2018-05-11T02:32:46.640Z,10.67
2018-05-11T02:35:14.292Z,10.33
2018-05-11T02:37:41.857Z,10.63
2018-05-11T02:40:09.419Z,10.40
2018-05-11T02:42:37.002Z,11.10
2018-05-11T02:45:04.597Z,10.93
2018-05-11T02:47:32.168Z,10.40
2018-05-11T02:49:59.737Z,11.23
2018-05-11T02:52:27.293Z,10.63
2018-05-11T02:54:54.848Z,12.17
2018-05-11T02:57:22.418Z,11.03
2018-05-11T02:59:49.960Z,11.30
2018-05-11T03:02:18.934Z,11.03
2018-05-11T03:04:46.516Z,12.10
2018-05-11T03:07:14.069Z,11.60
2018-05-11T03:09:41.646Z,11.97
2018-05-11T03:12:09.303Z,10.43
2018-05-11T03:14:36.784Z,12.37
2018-05-11T03:17:04.343Z,11.93
2018-05-11T03:19:31.914Z,11.60
2018-05-11T03:21:59.478Z,12.33
2018-05-11T03:24:27.007Z,12.57
2018-05-11T03:26:54.589Z,12.63
2018-05-11T03:29:22.121Z,13.33
2018-05-11T03:31:49.711Z,13.97
2018-05-11T03:34:17.234Z,12.93
2018-05-11T03:36:44.839Z,13.57
2018-05-11T03:39:12.445Z,13.47
2018-05-11T03:41:40.031Z,11.87
2018-05-11T03:44:07.577Z,13.20
2018-05-11T03:46:35.132Z,12.80
2018-05-11T03:49:02.686Z,11.20
2018-05-11T03:51:30.245Z,13.10
2018-05-11T03:53:57.876Z,11.77
2018-05-11T03:56:25.485Z,12.10
2018-05-11T03:58:53.038Z,11.53
2018-05-11T04:01:32.127Z,12.30
2018-05-11T04:04:11.488Z,11.63
2018-05-11T04:06:51.657Z,11.20
2018-05-11T04:09:19.185Z,11.47
2018-05-11T04:11:46.753Z,11.00
2018-05-11T04:14:14.347Z,10.83
2018-05-11T04:16:41.898Z,10.00
2018-05-11T04:19:09.449Z,10.30
2018-05-11T04:21:37.018Z,10.03
2018-05-11T04:24:04.579Z,10.40
2018-05-11T04:26:32.125Z,10.33
2018-05-11T04:28:59.719Z,10.20
2018-05-11T04:31:27.284Z,9.23
2018-05-11T04:33:54.956Z,9.90
2018-05-11T04:36:22.488Z,10.47
2018-05-11T04:38:50.085Z,10.00
2018-05-11T04:41:17.624Z,9.93
2018-05-11T04:43:45.184Z,9.73
2018-05-11T04:46:12.735Z,10.73
2018-05-11T04:48:40.285Z,9.83
2018-05-11T04:51:07.833Z,10.13
2018-05-11T04:53:35.427Z,10.53
2018-05-11T04:56:02.980Z,11.30
2018-05-11T04:58:30.534Z,9.83
2018-05-11T05:00:58.064Z,10.10
2018-05-11T05:03:25.629Z,10.27
2018-05-11T05:05:53.165Z,10.27
2018-05-11T05:08:20.751Z,9.43
2018-05-11T05:10:48.316Z,10.00
2018-05-11T05:13:18.003Z,9.77
2018-05-11T05:15:45.569Z,10.53
2018-05-11T05:18:13.159Z,10.07
2018-05-11T05:20:41.426Z,9.97
2018-05-11T05:23:09.010Z,10.93
2018-05-11T05:25:36.578Z,11.20
2018-05-11T05:28:04.155Z,10.93
2018-05-11T05:30:31.753Z,10.90
2018-05-11T05:32:59.444Z,11.50
2018-05-11T05:35:27.045Z,12.40
2018-05-11T05:37:54.640Z,12.07
2018-05-11T05:40:22.225Z,13.13
2018-05-11T05:42:49.797Z,12.57
2018-05-11T05:45:17.477Z,14.20
2018-05-11T05:47:45.415Z,13.37
2018-05-11T05:50:12.983Z,12.63
2018-05-11T05:52:40.548Z,12.33
2018-05-11T05:55:08.151Z,12.07
2018-05-11T05:57:35.801Z,12.87
2018-05-11T06:00:03.421Z,12.63
2018-05-11T06:02:31.689Z,10.80
2018-05-11T06:04:59.353Z,13.17
2018-05-11T06:07:26.964Z,12.60
2018-05-11T06:09:54.632Z,13.73
2018-05-11T06:12:22.307Z,16.93
2018-05-11T06:14:49.922Z,16.30
2018-05-11T06:17:17.735Z,19.40
2018-05-11T06:19:45.342Z,17.73
2018-05-11T06:22:12.925Z,19.97
2018-05-11T06:24:40.507Z,22.23
2018-05-11T06:27:08.243Z,19.80
2018-05-11T06:29:35.879Z,21.23
2018-05-11T06:32:04.092Z,21.03
2018-05-11T06:34:31.770Z,20.77
2018-05-11T06:36:59.385Z,21.27
2018-05-11T06:39:27.016Z,19.73
2018-05-11T06:41:54.556Z,17.33
2018-05-11T06:44:22.145Z,19.93
2018-05-11T06:46:49.690Z,17.87
2018-05-11T06:49:17.310Z,17.77
2018-05-11T06:51:44.863Z,16.67
2018-05-11T06:54:12.418Z,15.97
2018-05-11T06:56:39.981Z,16.50
2018-05-11T06:59:07.533Z,17.07
2018-05-11T07:01:35.237Z,17.87
2018-05-11T07:04:02.835Z,17.63
2018-05-11T07:06:30.416Z,16.23
2018-05-11T07:08:58.448Z,15.27
2018-05-11T07:11:26.029Z,14.83
2018-05-11T07:13:53.607Z,17.93
2018-05-11T07:16:21.220Z,16.17
2018-05-11T07:18:48.895Z,15.67
2018-05-11T07:21:16.594Z,15.83
2018-05-11T07:23:44.336Z,16.47
2018-05-11T07:26:11.969Z,16.47
2018-05-11T07:28:39.532Z,16.37
2018-05-11T07:31:07.162Z,16.27
2018-05-11T07:33:34.729Z,15.20
2018-05-11T07:36:02.304Z,16.17
2018-05-11T07:38:29.852Z,16.33
2018-05-11T07:40:57.452Z,16.43
2018-05-11T07:43:25.151Z,15.00
2018-05-11T07:45:52.626Z,15.83
2018-05-11T07:48:20.247Z,16.83
2018-05-11T07:50:47.805Z,15.40
2018-05-11T07:53:15.369Z,16.53
2018-05-11T07:55:42.925Z,16.67
2018-05-11T07:58:10.455Z,15.37
2018-05-11T08:00:37.992Z,15.50
2018-05-11T08:03:05.537Z,15.93
2018-05-11T08:05:33.128Z,16.13
2018-05-11T08:08:00.717Z,17.13
2018-05-11T08:10:28.339Z,15.17
2018-05-11T08:12:55.929Z,16.23
2018-05-11T08:15:23.488Z,16.00
2018-05-11T08:17:51.945Z,16.03
2018-05-11T08:20:19.497Z,14.13
2018-05-11T08:22:47.085Z,16.23
2018-05-11T08:25:14.647Z,15.73
2018-05-11T08:27:42.269Z,15.97
2018-05-11T08:30:09.834Z,16.80
2018-05-11T08:32:37.436Z,15.87
2018-05-11T08:35:05.038Z,15.90
2018-05-11T08:37:32.621Z,17.23
2018-05-11T08:40:00.264Z,16.60
2018-05-11T08:42:27.876Z,17.17
2018-05-11T08:44:55.435Z,15.73
2018-05-11T08:47:23.097Z,16.70
2018-05-11T08:49:50.672Z,16.43
2018-05-11T08:52:18.260Z,16.97
2018-05-11T08:54:45.832Z,15.30
2018-05-11T08:57:13.463Z,15.33
2018-05-11T08:59:41.108Z,16.37
2018-05-11T09:02:08.771Z,16.07
2018-05-11T09:04:36.463Z,18.40
2018-05-11T09:07:04.043Z,18.00
2018-05-11T09:09:31.613Z,18.03
2018-05-11T09:11:59.238Z,17.60
2018-05-11T09:14:26.807Z,17.00
2018-05-11T09:16:54.427Z,17.67
2018-05-11T09:19:22.519Z,17.53
2018-05-11T09:21:50.117Z,16.00
2018-05-11T09:24:17.727Z,16.17
2018-05-11T09:26:45.321Z,17.37
2018-05-11T09:29:12.957Z,16.83
2018-05-11T09:31:40.596Z,17.23
2018-05-11T09:34:08.140Z,18.00
2018-05-11T09:36:35.771Z,16.97
2018-05-11T09:39:03.318Z,19.00
2018-05-11T09:41:30.905Z,20.77
2018-05-11T09:43:58.651Z,18.43
2018-05-11T09:46:26.207Z,18.00
2018-05-11T09:48:53.756Z,19.35
2018-05-11T09:51:21.373Z,19.27
2018-05-11T09:53:48.977Z,17.15
2018-05-11T09:56:16.537Z,17.77
2018-05-11T09:58:44.096Z,16.83
2018-05-11T10:01:11.701Z,17.37
2018-05-11T10:03:39.341Z,17.90
2018-05-11T10:06:07.104Z,16.55
2018-05-11T10:08:35.913Z,16.85
2018-05-11T10:11:03.481Z,15.98
2018-05-11T10:13:31.062Z,16.33
2018-05-11T10:15:58.713Z,16.50
2018-05-11T10:18:26.306Z,16.62
2018-05-11T10:20:53.935Z,17.30
2018-05-11T10:23:21.453Z,15.48
2018-05-11T10:25:49.046Z,16.55
2018-05-11T10:28:16.670Z,16.30
2018-05-11T10:30:44.293Z,14.93
2018-05-11T10:33:11.895Z,15.23
2018-05-11T10:35:39.542Z,15.85
2018-05-11T10:38:07.174Z,15.10
2018-05-11T10:40:34.745Z,15.32
2018-05-11T10:43:02.983Z,16.58
2018-05-11T10:45:30.619Z,13.85
2018-05-11T10:47:58.284Z,14.38
2018-05-11T10:50:25.850Z,13.57
2018-05-11T10:52:53.501Z,14.43
2018-05-11T10:55:21.087Z,11.52
2018-05-11T10:57:48.661Z,12.00
2018-05-11T11:00:16.236Z,11.40
2018-05-11T11:02:43.899Z,12.13
2018-05-11T11:05:11.478Z,11.05
2018-05-11T11:07:39.058Z,12.07
2018-05-11T11:10:06.631Z,10.80
2018-05-11T11:12:34.234Z,10.55
2018-05-11T11:15:01.839Z,10.45
2018-05-11T11:17:29.398Z,10.32
2018-05-11T11:19:57.044Z,9.82
2018-05-11T11:22:24.629Z,10.67
2018-05-11T11:24:52.734Z,9.60
2018-05-11T11:27:20.331Z,9.80
2018-05-11T11:29:47.907Z,9.43
2018-05-11T11:32:15.464Z,9.43
2018-05-11T11:34:43.174Z,8.90
2018-05-11T11:37:11.453Z,8.87
2018-05-11T11:39:39.030Z,9.27
2018-05-11T11:42:06.628Z,8.30
2018-05-11T11:44:34.198Z,8.10
2018-05-11T11:47:01.773Z,8.27
2018-05-11T11:49:29.380Z,8.70
2018-05-11T11:51:57.064Z,8.37
2018-05-11T11:54:24.678Z,8.03
2018-05-11T11:56:52.271Z,7.43
2018-05-11T11:59:19.863Z,7.97
2018-05-11T12:01:47.417Z,7.27
2018-05-11T12:04:15.078Z,6.73
2018-05-11T12:06:42.740Z,6.93
2018-05-11T12:09:10.387Z,7.63
2018-05-11T12:11:37.964Z,8.17
2018-05-11T12:14:05.592Z,7.27
2018-05-11T12:16:33.153Z,7.73
2018-05-11T12:19:00.801Z,7.70
2018-05-11T12:21:28.412Z,7.53
2018-05-11T12:23:55.961Z,8.47
2018-05-11T12:26:24.034Z,6.50
2018-05-11T12:28:51.568Z,7.47
2018-05-11T12:31:19.151Z,7.23
2018-05-11T12:33:46.857Z,7.33
2018-05-11T12:36:14.458Z,7.00
2018-05-11T12:38:42.014Z,7.10
2018-05-11T12:41:09.818Z,7.07
2018-05-11T12:43:37.394Z,5.70
2018-05-11T12:46:05.167Z,5.83
2018-05-11T12:48:32.769Z,5.23
2018-05-11T12:51:00.376Z,6.03
2018-05-11T12:53:28.144Z,5.70
2018-05-11T12:55:55.666Z,5.57
2018-05-11T12:58:23.755Z,5.33
2018-05-11T13:00:51.379Z,7.53
2018-05-11T13:03:19.025Z,8.57
2018-05-11T13:05:47.211Z,5.53
2018-05-11T13:08:14.849Z,5.00
2018-05-11T13:10:42.437Z,3.77
2018-05-11T13:13:10.037Z,4.70
2018-05-11T13:15:37.638Z,4.73
2018-05-11T13:18:05.334Z,4.17
2018-05-11T13:20:33.033Z,4.27
2018-05-11T13:23:00.590Z,4.37
2018-05-11T13:25:28.217Z,4.63
2018-05-11T13:27:55.909Z,5.50
2018-05-11T13:30:23.569Z,4.23
2018-05-11T13:32:51.124Z,3.70
2018-05-11T13:35:18.698Z,8.17
2018-05-11T13:37:46.271Z,4.00
2018-05-11T13:40:13.890Z,3.23
2018-05-11T13:42:41.520Z,3.10
2018-05-11T13:45:09.269Z,3.70
2018-05-11T13:47:37.248Z,3.70
2018-05-11T13:50:04.898Z,3.70
2018-05-11T13:52:32.572Z,2.77
2018-05-11T13:55:00.223Z,3.17
2018-05-11T13:57:28.037Z,2.70
2018-05-11T13:59:55.649Z,2.50
2018-05-11T14:02:23.345Z,3.03
2018-05-11T14:04:51.311Z,2.63
2018-05-11T14:07:19.062Z,2.73
2018-05-11T14:09:46.727Z,2.70
2018-05-11T14:12:14.579Z,2.27
2018-05-11T14:14:42.291Z,2.30
2018-05-11T14:17:10.102Z,2.13
2018-05-11T14:19:37.891Z,2.50
2018-05-11T14:22:05.645Z,2.13
2018-05-11T14:24:33.305Z,2.83
2018-05-11T14:27:00.933Z,2.70
2018-05-11T14:29:28.570Z,2.17
2018-05-11T14:31:56.199Z,2.33
2018-05-11T14:34:23.734Z,2.27
2018-05-11T14:36:51.334Z,2.00
2018-05-11T14:39:18.880Z,2.37
2018-05-11T14:41:46.475Z,2.60
2018-05-11T14:44:14.039Z,2.33
2018-05-11T14:46:41.693Z,2.60
2018-05-11T14:49:09.216Z,2.60
2018-05-11T14:51:36.802Z,2.70
2018-05-11T14:54:04.371Z,2.23
2018-05-11T14:56:31.937Z,2.17
2018-05-11T14:58:59.727Z,2.27
2018-05-11T15:01:27.278Z,1.93
2018-05-11T15:03:54.879Z,1.90
2018-05-11T15:06:22.485Z,2.20
2018-05-11T15:08:50.073Z,2.30
2018-05-11T15:11:17.645Z,2.50
2018-05-11T15:13:45.273Z,1.93
2018-05-11T15:16:12.837Z,2.67
2018-05-11T15:18:44.588Z,2.13
2018-05-11T15:21:12.140Z,1.97
2018-05-11T15:23:39.743Z,2.40
2018-05-11T15:26:07.390Z,3.00
2018-05-11T15:28:35.043Z,1.93
2018-05-11T15:31:02.614Z,2.40
2018-05-11T15:33:30.218Z,2.20
2018-05-11T15:35:57.835Z,2.20
2018-05-11T15:38:25.412Z,2.30
2018-05-11T15:40:53.071Z,1.90
2018-05-11T15:43:20.799Z,2.37
2018-05-11T15:45:48.339Z,2.70
2018-05-11T15:48:15.981Z,1.80
2018-05-11T15:50:43.517Z,1.70
2018-05-11T15:53:11.115Z,2.07
2018-05-11T15:55:38.736Z,1.63
2018-05-11T15:58:06.353Z,1.90
2018-05-11T16:00:33.919Z,2.20
2018-05-11T16:03:01.504Z,1.80
2018-05-11T16:05:30.412Z,2.00
2018-05-11T16:07:58.035Z,2.27
2018-05-11T16:10:25.579Z,2.33
2018-05-11T16:12:53.288Z,2.03
2018-05-11T16:15:21.063Z,2.43
2018-05-11T16:17:48.726Z,2.30
2018-05-11T16:20:16.370Z,1.97
2018-05-11T16:22:44.053Z,1.90
2018-05-11T16:25:14.428Z,2.23
2018-05-11T16:27:42.068Z,2.17
2018-05-11T16:30:09.652Z,1.97
2018-05-11T16:32:37.369Z,2.10
2018-05-11T16:35:05.931Z,2.27
2018-05-11T16:37:33.685Z,1.93
2018-05-11T16:40:01.324Z,2.20
2018-05-11T16:42:28.995Z,1.77
2018-05-11T16:44:56.813Z,2.20
2018-05-11T16:47:24.365Z,1.63
2018-05-11T16:49:51.968Z,1.97
2018-05-11T16:52:19.553Z,2.40
2018-05-11T16:54:47.183Z,2.00
2018-05-11T16:57:14.727Z,2.20
2018-05-11T16:59:42.329Z,1.77
2018-05-11T17:02:09.956Z,2.30
2018-05-11T17:04:37.550Z,1.90
2018-05-11T17:07:06.063Z,3.90
2018-05-11T17:09:33.646Z,5.30
2018-05-11T17:12:01.232Z,4.20
2018-05-11T17:14:28.846Z,5.37
2018-05-11T17:16:56.404Z,5.07
2018-05-11T17:19:24.012Z,5.30
2018-05-11T17:21:51.610Z,4.80
2018-05-11T17:24:19.196Z,4.00
2018-05-11T17:26:46.797Z,5.40
2018-05-11T17:29:14.388Z,4.17
2018-05-11T17:31:41.964Z,4.23
2018-05-11T17:34:09.592Z,4.53
2018-05-11T17:36:37.194Z,4.43
2018-05-11T17:39:04.850Z,4.10
2018-05-11T17:41:32.543Z,4.70
2018-05-11T17:44:00.037Z,4.50
2018-05-11T17:46:27.586Z,3.83
2018-05-11T17:48:55.160Z,4.50
2018-05-11T17:51:22.683Z,4.23
2018-05-11T17:53:50.241Z,4.23
2018-05-11T17:56:17.859Z,5.23
2018-05-11T17:58:45.459Z,7.63
2018-05-11T18:01:13.064Z,73.73
2018-05-11T18:03:40.639Z,9.57
2018-05-11T18:06:08.229Z,11.90
2018-05-11T18:08:35.789Z,7.23
2018-05-11T18:11:03.367Z,6.97
2018-05-11T18:13:30.940Z,7.20
2018-05-11T18:15:58.569Z,6.97
2018-05-11T18:18:26.152Z,7.20
2018-05-11T18:20:53.730Z,7.87
2018-05-11T18:23:21.275Z,7.93
2018-05-11T18:25:48.843Z,8.17
2018-05-11T18:28:16.390Z,6.77
2018-05-11T18:30:43.964Z,8.40
2018-05-11T18:33:11.686Z,7.70
2018-05-11T18:35:39.345Z,8.40
2018-05-11T18:38:06.908Z,7.87
2018-05-11T18:40:34.516Z,7.87
2018-05-11T18:43:02.116Z,7.50
2018-05-11T18:45:29.696Z,7.60
2018-05-11T18:47:57.300Z,7.83
2018-05-11T18:50:24.907Z,7.60
2018-05-11T18:52:52.764Z,7.23
2018-05-11T18:55:20.369Z,7.47
2018-05-11T18:57:48.462Z,7.37
2018-05-11T19:00:16.039Z,6.80
2018-05-11T19:02:43.613Z,7.00
2018-05-11T19:05:11.208Z,6.90
2018-05-11T19:07:38.870Z,6.20
2018-05-11T19:10:06.617Z,6.40
2018-05-11T19:12:34.213Z,5.77
2018-05-11T19:15:01.797Z,6.37
2018-05-11T19:17:29.430Z,5.03
2018-05-11T19:19:57.045Z,5.60
2018-05-11T19:22:24.654Z,5.60
2018-05-11T19:24:52.279Z,5.63
2018-05-11T19:27:19.914Z,5.20
2018-05-11T19:29:47.474Z,5.10
2018-05-11T19:32:15.089Z,5.33
2018-05-11T19:34:42.716Z,4.73
2018-05-11T19:37:10.277Z,5.00
2018-05-11T19:39:38.889Z,4.70
2018-05-11T19:42:06.464Z,4.80
2018-05-11T19:44:34.094Z,4.87
2018-05-11T19:47:01.646Z,5.20
2018-05-11T19:49:29.283Z,4.80
2018-05-11T19:51:56.897Z,4.57
2018-05-11T19:54:24.449Z,4.53
2018-05-11T19:56:52.012Z,4.63
2018-05-11T19:59:21.410Z,5.27
2018-05-11T20:01:48.955Z,4.93
2018-05-11T20:04:16.561Z,5.73
2018-05-11T20:06:44.103Z,5.77
2018-05-11T20:09:11.643Z,5.50
2018-05-11T20:11:39.306Z,5.30
2018-05-11T20:14:06.858Z,5.87
2018-05-11T20:16:34.457Z,5.30
2018-05-11T20:19:02.023Z,5.20
2018-05-11T20:21:29.646Z,5.27
2018-05-11T20:23:57.234Z,5.13
2018-05-11T20:26:24.793Z,4.63
2018-05-11T20:28:52.404Z,4.80
2018-05-11T20:31:19.993Z,5.47
2018-05-11T20:33:48.390Z,5.37
2018-05-11T20:36:15.924Z,5.00
2018-05-11T20:38:43.485Z,4.37
2018-05-11T20:41:11.067Z,5.30
2018-05-11T20:43:38.615Z,4.97
2018-05-11T20:46:06.213Z,5.20
2018-05-11T20:48:33.752Z,6.23
2018-05-11T20:51:01.325Z,5.17
2018-05-11T20:53:28.904Z,5.23
2018-05-11T20:55:56.506Z,5.13
2018-05-11T20:58:24.075Z,4.33
2018-05-11T21:00:51.620Z,4.73
2018-05-11T21:03:19.221Z,4.50
2018-05-11T21:05:46.832Z,5.70
2018-05-11T21:08:14.410Z,5.47
2018-05-11T21:10:41.961Z,4.30
2018-05-11T21:13:09.553Z,4.43
2018-05-11T21:15:37.254Z,5.03
2018-05-11T21:18:04.864Z,5.10
2018-05-11T21:20:32.412Z,4.30
2018-05-11T21:22:59.980Z,4.60
2018-05-11T21:25:27.554Z,4.90
2018-05-11T21:27:55.112Z,4.40
2018-05-11T21:30:22.639Z,4.93
2018-05-11T21:32:50.267Z,4.43
2018-05-11T21:35:17.853Z,4.80
2018-05-11T21:37:45.464Z,4.77
2018-05-11T21:40:12.999Z,4.77
2018-05-11T21:42:40.540Z,5.13
2018-05-11T21:45:08.117Z,4.10
2018-05-11T21:47:35.733Z,4.83
2018-05-11T21:50:03.320Z,5.93
2018-05-11T21:52:32.023Z,4.73
2018-05-11T21:54:59.585Z,4.53
2018-05-11T21:57:27.124Z,5.63
2018-05-11T21:59:54.686Z,4.40
2018-05-11T22:02:22.247Z,4.43
2018-05-11T22:04:49.859Z,4.80
2018-05-11T22:07:17.397Z,4.23
2018-05-11T22:09:44.947Z,4.10
2018-05-11T22:12:12.536Z,4.53
2018-05-11T22:14:40.085Z,4.40
2018-05-11T22:17:07.636Z,4.40
2018-05-11T22:19:35.177Z,4.27
2018-05-11T22:22:02.749Z,3.57
2018-05-11T22:24:30.323Z,4.40
2018-05-11T22:26:57.884Z,4.57
2018-05-11T22:29:25.432Z,4.60
2018-05-11T22:31:53.065Z,5.23
2018-05-11T22:34:20.597Z,4.73
2018-05-11T22:36:48.193Z,4.67
2018-05-11T22:39:15.744Z,4.90
2018-05-11T22:41:43.309Z,5.30
2018-05-11T22:44:10.834Z,5.00
2018-05-11T22:46:38.386Z,5.00
2018-05-11T22:49:05.947Z,4.70
2018-05-11T22:51:33.560Z,4.53
2018-05-11T22:54:01.110Z,4.30
2018-05-11T22:56:28.635Z,4.27
2018-05-11T22:58:56.992Z,4.03
2018-05-11T23:01:24.574Z,4.17
2018-05-11T23:03:52.126Z,4.13
2018-05-11T23:06:19.660Z,4.37
2018-05-11T23:08:47.249Z,5.00
2018-05-11T23:11:14.842Z,4.50
2018-05-11T23:13:42.459Z,4.00
2018-05-11T23:16:10.036Z,4.80
2018-05-11T23:18:37.594Z,4.73
2018-05-11T23:21:05.174Z,5.10
2018-05-11T23:23:32.770Z,5.20
2018-05-11T23:26:00.240Z,5.33
2018-05-11T23:28:27.794Z,4.43
2018-05-11T23:30:55.325Z,4.63
2018-05-11T23:33:24.406Z,5.30
2018-05-11T23:35:52.022Z,5.17
2018-05-11T23:38:19.581Z,5.03
2018-05-11T23:40:47.165Z,5.50
2018-05-11T23:43:14.724Z,4.67
2018-05-11T23:45:42.279Z,4.73
2018-05-11T23:48:09.850Z,4.67
2018-05-11T23:50:37.387Z,5.00
2018-05-11T23:53:04.928Z,4.60
2018-05-11T23:55:32.469Z,4.47
2018-05-11T23:58:00.044Z,4.60
